Time,TemperatureF,DewpointF,PressureIn,WindDirection,WindDirectionDegrees,WindSpeedMPH,WindSpeedGustMPH,Humidity,HourlyPrecipIn,Conditions,Clouds,dailyrainin,SolarRadiationWatts/m^2,SoftwareType,DateUTC
2014-09-17 00:01:00,48.3,44.0,30.05,North,354,0.0,0.0,85,-99.99,,,-99.99,0.0,1-wire,2014-09-17 05:01:00,
2014-09-17 00:06:00,48.4,44.1,30.05,North,354,0.0,0.0,85,-99.99,,,-99.99,1.5,1-wire,2014-09-17 05:06:00,
2014-09-17 00:11:00,48.4,44.2,30.05,North,354,0.0,0.0,85,-99.99,,,-99.99,0.0,1-wire,2014-09-17 05:11:00,
2014-09-17 00:16:00,48.4,44.1,30.05,North,352,0.0,0.0,85,-99.99,,,-99.99,1.5,1-wire,2014-09-17 05:16:00,
2014-09-17 00:21:00,48.3,44.1,30.05,North,352,0.0,0.0,85,-99.99,,,-99.99,0.0,1-wire,2014-09-17 05:21:00,
2014-09-17 00:26:00,48.2,44.1,30.05,North,352,0.0,0.0,85,-99.99,,,-99.99,0.0,1-wire,2014-09-17 05:26:00,
2014-09-17 00:31:00,48.4,44.1,30.05,NNW,344,0.0,0.0,85,-99.99,,,-99.99,0.0,1-wire,2014-09-17 05:31:00,
2014-09-17 00:36:00,48.4,44.2,30.04,NNW,344,0.0,0.0,86,-99.99,,,-99.99,0.0,1-wire,2014-09-17 05:36:00,
2014-09-17 00:41:00,48.4,44.2,30.05,NNW,344,0.0,0.0,85,-99.99,,,-99.99,0.0,1-wire,2014-09-17 05:41:00,
2014-09-17 00:46:00,48.4,44.3,30.04,NNW,346,0.0,0.0,86,-99.99,,,-99.99,0.0,1-wire,2014-09-17 05:46:00,
2014-09-17 00:51:00,48.5,44.4,30.05,NNW,346,0.0,0.0,86,-99.99,,,-99.99,0.0,1-wire,2014-09-17 05:51:00,
2014-09-17 00:56:00,48.5,44.5,30.05,NNW,346,0.0,0.0,86,-99.99,,,-99.99,1.5,1-wire,2014-09-17 05:56:00,
2014-09-17 01:02:00,48.4,44.3,30.05,NNW,346,0.0,0.0,86,-99.99,,,-99.99,0.0,1-wire,2014-09-17 06:02:00,
2014-09-17 01:07:00,48.3,44.2,30.05,NNW,346,0.0,0.0,86,-99.99,,,-99.99,0.0,1-wire,2014-09-17 06:07:00,
2014-09-17 01:12:00,48.7,44.7,30.05,NNW,339,0.0,0.0,86,-99.99,,,-99.99,1.5,1-wire,2014-09-17 06:12:00,
2014-09-17 01:17:00,48.4,44.4,30.05,NNW,339,0.0,0.0,86,-99.99,,,-99.99,0.0,1-wire,2014-09-17 06:17:00,
2014-09-17 01:22:00,48.3,44.6,30.04,NNW,339,0.0,0.0,87,-99.99,,,-99.99,0.0,1-wire,2014-09-17 06:22:00,
2014-09-17 01:27:00,48.5,44.8,30.05,NNW,339,0.0,0.0,87,-99.99,,,-99.99,0.0,1-wire,2014-09-17 06:27:00,
2014-09-17 01:32:00,48.5,44.8,30.05,NNW,339,0.0,0.0,87,-99.99,,,-99.99,1.5,1-wire,2014-09-17 06:32:00,
2014-09-17 01:37:00,48.7,45.0,30.04,NNW,339,0.0,0.0,87,-99.99,,,-99.99,0.0,1-wire,2014-09-17 06:37:00,
2014-09-17 01:41:00,48.8,45.1,30.04,NNW,339,0.0,0.0,87,-99.99,,,-99.99,0.0,1-wire,2014-09-17 06:41:00,
2014-09-17 01:46:00,49.0,45.3,30.04,NNW,336,0.0,0.0,87,-99.99,,,-99.99,0.0,1-wire,2014-09-17 06:46:00,
2014-09-17 01:51:00,49.0,45.3,30.05,NNW,336,0.0,0.0,87,-99.99,,,-99.99,0.0,1-wire,2014-09-17 06:51:00,
2014-09-17 01:56:00,49.0,45.3,30.04,NNW,336,0.0,0.0,87,-99.99,,,-99.99,0.0,1-wire,2014-09-17 06:56:00,
2014-09-17 02:01:00,49.0,45.2,30.04,NNW,333,0.0,0.0,87,-99.99,,,-99.99,0.0,1-wire,2014-09-17 07:01:00,
2014-09-17 02:06:00,49.0,45.1,30.04,NNW,333,0.0,0.0,87,-99.99,,,-99.99,0.0,1-wire,2014-09-17 07:06:00,
2014-09-17 02:09:00,49.0,45.1,30.04,NNW,333,0.0,0.0,86,-99.99,,,-99.99,0.0,1-wire,2014-09-17 07:09:00,
2014-09-17 02:12:00,48.9,45.0,30.04,NNW,332,0.0,0.0,86,-99.99,,,-99.99,0.0,1-wire,2014-09-17 07:12:00,
2014-09-17 02:17:00,49.1,45.2,30.04,NNW,332,0.0,0.0,86,-99.99,,,-99.99,0.0,1-wire,2014-09-17 07:17:00,
2014-09-17 02:22:00,49.0,45.0,30.04,NNW,332,0.0,0.0,86,-99.99,,,-99.99,0.0,1-wire,2014-09-17 07:22:00,
2014-09-17 02:27:00,49.1,45.2,30.04,NNW,331,0.0,0.0,86,-99.99,,,-99.99,0.0,1-wire,2014-09-17 07:27:00,
2014-09-17 02:33:00,49.1,45.1,30.03,NNW,331,0.0,0.0,86,-99.99,,,-99.99,0.0,1-wire,2014-09-17 07:33:00,
2014-09-17 02:38:00,48.9,44.9,30.03,NNW,331,0.0,0.0,86,-99.99,,,-99.99,0.0,1-wire,2014-09-17 07:38:00,
2014-09-17 02:43:00,48.8,44.8,30.03,NNW,331,0.0,0.0,86,-99.99,,,-99.99,0.0,1-wire,2014-09-17 07:43:00,
2014-09-17 02:48:00,48.9,44.8,30.03,NNW,331,0.0,0.0,86,-99.99,,,-99.99,1.5,1-wire,2014-09-17 07:48:00,
2014-09-17 02:53:00,48.6,44.6,30.03,NNW,331,0.0,0.0,86,-99.99,,,-99.99,0.0,1-wire,2014-09-17 07:53:00,
2014-09-17 02:58:00,48.6,44.6,30.03,NNW,331,0.0,0.0,86,-99.99,,,-99.99,1.5,1-wire,2014-09-17 07:58:00,
2014-09-17 03:03:00,48.7,44.6,30.03,NNW,331,0.0,0.0,86,-99.99,,,-99.99,0.0,1-wire,2014-09-17 08:03:00,
2014-09-17 03:08:00,48.6,44.4,30.03,NNW,331,0.0,0.0,85,-99.99,,,-99.99,0.0,1-wire,2014-09-17 08:08:00,
2014-09-17 03:14:00,48.7,44.2,30.03,NNW,331,0.0,0.0,84,-99.99,,,-99.99,0.0,1-wire,2014-09-17 08:14:00,
2014-09-17 03:19:00,48.9,44.3,30.03,NNW,331,0.0,0.0,84,-99.99,,,-99.99,0.0,1-wire,2014-09-17 08:19:00,
2014-09-17 03:24:00,48.9,44.3,30.02,NNW,331,0.0,0.0,84,-99.99,,,-99.99,0.0,1-wire,2014-09-17 08:24:00,
2014-09-17 03:29:00,48.9,44.1,30.02,NNW,330,0.0,0.0,84,-99.99,,,-99.99,0.0,1-wire,2014-09-17 08:29:00,
2014-09-17 03:34:00,48.9,44.1,30.02,NNW,330,0.0,0.0,84,-99.99,,,-99.99,0.0,1-wire,2014-09-17 08:34:00,
2014-09-17 03:39:00,48.9,44.2,30.01,NNW,330,0.0,0.0,84,-99.99,,,-99.99,0.0,1-wire,2014-09-17 08:39:00,
2014-09-17 03:44:00,48.7,44.0,30.01,NNW,330,0.0,0.0,84,-99.99,,,-99.99,0.0,1-wire,2014-09-17 08:44:00,
2014-09-17 03:49:00,48.6,43.8,30.01,NNW,330,0.0,0.0,84,-99.99,,,-99.99,0.0,1-wire,2014-09-17 08:49:00,
2014-09-17 03:54:00,48.5,43.8,30.01,NNW,330,0.0,0.0,84,-99.99,,,-99.99,0.0,1-wire,2014-09-17 08:54:00,
2014-09-17 03:59:00,48.5,43.7,30.01,NNW,331,0.0,0.0,83,-99.99,,,-99.99,0.0,1-wire,2014-09-17 08:59:00,
2014-09-17 04:04:00,48.6,43.9,30.01,NNW,331,0.0,0.0,84,-99.99,,,-99.99,0.0,1-wire,2014-09-17 09:04:00,
2014-09-17 04:09:00,48.6,43.8,30.01,NNW,331,0.0,0.0,83,-99.99,,,-99.99,0.0,1-wire,2014-09-17 09:09:00,
2014-09-17 04:14:00,48.4,43.5,30.01,NNW,330,0.0,0.0,83,-99.99,,,-99.99,0.0,1-wire,2014-09-17 09:14:00,
2014-09-17 04:19:00,48.5,43.6,30.01,NNW,330,0.0,0.0,83,-99.99,,,-99.99,0.0,1-wire,2014-09-17 09:19:00,
2014-09-17 04:24:00,48.3,43.4,30.01,NNW,330,0.0,0.0,83,-99.99,,,-99.99,0.0,1-wire,2014-09-17 09:24:00,
2014-09-17 04:29:00,48.4,43.5,30.01,NNW,330,0.0,0.0,83,-99.99,,,-99.99,0.0,1-wire,2014-09-17 09:29:00,
2014-09-17 04:34:00,48.4,43.6,30.01,NNW,330,0.0,0.0,83,-99.99,,,-99.99,0.0,1-wire,2014-09-17 09:34:00,
2014-09-17 04:39:00,48.2,43.3,30.01,NNW,330,0.0,0.0,83,-99.99,,,-99.99,1.5,1-wire,2014-09-17 09:39:00,
2014-09-17 04:44:00,48.2,43.3,30.01,NNW,330,0.0,0.0,83,-99.99,,,-99.99,1.5,1-wire,2014-09-17 09:44:00,
2014-09-17 04:49:00,48.1,43.4,30.01,NNW,330,0.0,0.0,84,-99.99,,,-99.99,0.0,1-wire,2014-09-17 09:49:00,
2014-09-17 04:55:00,48.2,43.4,30.01,NNW,330,0.0,0.0,83,-99.99,,,-99.99,0.0,1-wire,2014-09-17 09:55:00,
2014-09-17 05:00:00,48.1,43.3,30.01,NNW,330,0.0,0.0,83,-99.99,,,-99.99,1.5,1-wire,2014-09-17 10:00:00,
2014-09-17 05:05:00,48.1,43.3,30.01,NNW,330,0.0,0.0,83,-99.99,,,-99.99,0.0,1-wire,2014-09-17 10:05:00,
2014-09-17 05:10:00,48.0,43.2,30.01,NNW,330,0.0,0.0,83,-99.99,,,-99.99,0.0,1-wire,2014-09-17 10:10:00,
2014-09-17 05:15:00,48.1,43.2,30.01,NNW,330,0.0,0.0,83,-99.99,,,-99.99,0.0,1-wire,2014-09-17 10:15:00,
2014-09-17 05:20:00,48.0,43.2,30.01,NNW,330,0.0,0.0,83,-99.99,,,-99.99,0.0,1-wire,2014-09-17 10:20:00,
2014-09-17 05:25:00,48.2,43.2,30.01,NNW,330,0.0,0.0,83,-99.99,,,-99.99,0.0,1-wire,2014-09-17 10:25:00,
2014-09-17 05:30:00,48.2,43.2,30.01,NNW,330,0.0,0.0,83,-99.99,,,-99.99,0.0,1-wire,2014-09-17 10:30:00,
2014-09-17 05:35:00,48.3,43.2,30.01,NNW,330,0.0,0.0,82,-99.99,,,-99.99,0.0,1-wire,2014-09-17 10:35:00,
2014-09-17 05:40:00,48.3,43.2,30.01,NNW,330,0.0,0.0,82,-99.99,,,-99.99,0.0,1-wire,2014-09-17 10:40:00,
2014-09-17 05:45:00,48.3,43.1,30.01,NNW,330,0.0,0.0,82,-99.99,,,-99.99,0.0,1-wire,2014-09-17 10:45:00,
2014-09-17 05:51:00,48.4,43.2,30.01,NNW,330,0.0,0.0,82,-99.99,,,-99.99,0.0,1-wire,2014-09-17 10:51:00,
2014-09-17 05:55:00,48.4,43.2,30.01,NNW,330,0.0,0.0,82,-99.99,,,-99.99,1.8,1-wire,2014-09-17 10:55:00,
2014-09-17 06:00:00,48.2,43.0,30.01,NNW,330,0.0,0.0,82,-99.99,,,-99.99,0.0,1-wire,2014-09-17 11:00:00,
2014-09-17 06:05:00,48.3,43.1,30.01,NNW,330,0.0,0.0,82,-99.99,,,-99.99,0.0,1-wire,2014-09-17 11:05:00,
2014-09-17 06:10:00,48.2,43.0,30.01,NNW,330,0.0,0.0,82,-99.99,,,-99.99,0.0,1-wire,2014-09-17 11:10:00,
2014-09-17 06:15:00,48.3,43.1,30.01,NNW,330,0.0,0.0,82,-99.99,,,-99.99,1.8,1-wire,2014-09-17 11:15:00,
2014-09-17 06:20:00,48.2,43.0,30.01,NNW,330,0.0,0.0,82,-99.99,,,-99.99,0.0,1-wire,2014-09-17 11:20:00,
2014-09-17 06:25:00,48.1,43.0,30.01,NNW,330,0.0,0.0,82,-99.99,,,-99.99,0.0,1-wire,2014-09-17 11:25:00,
2014-09-17 06:30:00,48.0,43.0,30.01,NNW,330,0.0,0.0,83,-99.99,,,-99.99,0.0,1-wire,2014-09-17 11:30:00,
2014-09-17 06:35:00,48.1,42.9,30.01,NNW,330,0.0,0.0,82,-99.99,,,-99.99,4.6,1-wire,2014-09-17 11:35:00,
2014-09-17 06:40:00,48.0,42.9,30.01,NNW,330,0.0,0.0,82,-99.99,,,-99.99,5.5,1-wire,2014-09-17 11:40:00,
2014-09-17 06:45:00,48.0,42.9,30.01,NNW,330,0.0,0.0,83,-99.99,,,-99.99,5.5,1-wire,2014-09-17 11:45:00,
2014-09-17 06:50:00,47.9,42.8,30.01,NNW,330,0.0,0.0,82,-99.99,,,-99.99,9.1,1-wire,2014-09-17 11:50:00,
2014-09-17 06:55:00,48.0,42.7,30.02,NNW,330,0.0,2.0,82,-99.99,,,-99.99,10.9,1-wire,2014-09-17 11:55:00,
2014-09-17 07:00:00,48.0,42.7,30.01,NNW,330,0.0,0.0,82,-99.99,,,-99.99,16.5,1-wire,2014-09-17 12:00:00,
2014-09-17 07:05:00,48.1,42.9,30.02,NNW,330,0.0,0.0,82,-99.99,,,-99.99,18.3,1-wire,2014-09-17 12:05:00,
2014-09-17 07:10:00,48.1,43.0,30.02,NNW,330,0.0,0.0,82,-99.99,,,-99.99,18.3,1-wire,2014-09-17 12:10:00,
2014-09-17 07:15:00,48.2,43.0,30.02,NNW,330,0.0,0.0,82,-99.99,,,-99.99,18.3,1-wire,2014-09-17 12:15:00,
2014-09-17 07:20:00,48.1,43.1,30.02,NNW,330,0.0,0.0,82,-99.99,,,-99.99,20.1,1-wire,2014-09-17 12:20:00,
2014-09-17 07:25:00,48.4,43.2,30.02,NNW,330,0.0,0.0,82,-99.99,,,-99.99,27.4,1-wire,2014-09-17 12:25:00,
2014-09-17 07:30:00,48.6,43.3,30.02,NNW,330,0.0,0.0,82,-99.99,,,-99.99,27.4,1-wire,2014-09-17 12:30:00,
2014-09-17 07:35:00,48.9,43.6,30.02,NNW,330,0.0,0.0,82,-99.99,,,-99.99,32.9,1-wire,2014-09-17 12:35:00,
2014-09-17 07:40:00,49.2,43.8,30.02,NNW,330,0.0,0.0,82,-99.99,,,-99.99,38.4,1-wire,2014-09-17 12:40:00,
2014-09-17 07:41:00,49.2,43.8,30.02,NNW,330,0.0,0.0,81,-99.99,,,-99.99,36.6,1-wire,2014-09-17 12:41:00,
2014-09-17 07:46:00,49.6,44.0,30.01,NNW,330,0.0,0.0,81,-99.99,,,-99.99,62.6,1-wire,2014-09-17 12:46:00,
2014-09-17 07:52:00,50.0,44.0,30.01,NNW,330,0.0,0.0,80,-99.99,,,-99.99,42.7,1-wire,2014-09-17 12:52:00,
2014-09-17 07:57:00,50.4,44.4,30.01,NNW,331,0.0,0.0,80,-99.99,,,-99.99,45.8,1-wire,2014-09-17 12:57:00,
2014-09-17 08:02:00,50.8,44.4,30.01,NNW,331,0.0,0.0,79,-99.99,,,-99.99,54.9,1-wire,2014-09-17 13:02:00,
2014-09-17 08:07:00,51.2,44.5,30.01,NNW,331,0.0,0.0,78,-99.99,,,-99.99,58.6,1-wire,2014-09-17 13:07:00,
2014-09-17 08:12:00,51.7,44.8,30.01,NNW,337,0.0,0.0,77,-99.99,,,-99.99,56.4,1-wire,2014-09-17 13:12:00,
2014-09-17 08:17:00,52.2,45.1,30.01,NNW,337,0.0,0.0,77,-99.99,,,-99.99,73.3,1-wire,2014-09-17 13:17:00,
2014-09-17 08:22:00,52.6,45.7,30.01,NNW,337,0.0,0.0,77,-99.99,,,-99.99,89.8,1-wire,2014-09-17 13:22:00,
2014-09-17 08:27:00,52.9,45.9,30.01,West,281,0.0,0.0,77,-99.99,,,-99.99,109.9,1-wire,2014-09-17 13:27:00,
2014-09-17 08:32:00,53.5,45.8,30.01,NNW,341,0.0,0.0,75,-99.99,,,-99.99,117.6,1-wire,2014-09-17 13:32:00,
2014-09-17 08:37:00,54.4,47.1,30.01,NNW,341,0.0,0.0,76,-99.99,,,-99.99,128.3,1-wire,2014-09-17 13:37:00,
2014-09-17 08:42:00,54.7,47.5,30.01,NNW,335,0.0,0.0,76,-99.99,,,-99.99,79.4,1-wire,2014-09-17 13:42:00,
2014-09-17 08:47:00,55.0,46.6,30.01,NNW,335,0.0,0.0,73,-99.99,,,-99.99,113.0,1-wire,2014-09-17 13:47:00,
2014-09-17 08:52:00,55.5,46.9,30.01,NNW,335,1.0,2.0,73,-99.99,,,-99.99,123.7,1-wire,2014-09-17 13:52:00,
2014-09-17 08:57:00,55.9,46.9,30.01,NNW,335,0.0,2.0,72,-99.99,,,-99.99,163.1,1-wire,2014-09-17 13:57:00,
2014-09-17 09:03:00,56.7,47.2,30.01,NNW,339,0.0,0.0,71,-99.99,,,-99.99,125.2,1-wire,2014-09-17 14:03:00,
2014-09-17 09:08:00,56.7,46.7,30.01,NNW,339,0.0,0.0,69,-99.99,,,-99.99,154.2,1-wire,2014-09-17 14:08:00,
2014-09-17 09:13:00,57.1,47.2,30.01,NNW,330,1.0,4.0,69,-99.99,,,-99.99,109.9,1-wire,2014-09-17 14:13:00,
2014-09-17 09:18:00,57.3,47.9,30.01,NNW,330,0.0,0.0,71,-99.99,,,-99.99,446.0,1-wire,2014-09-17 14:18:00,
2014-09-17 09:23:00,57.4,46.9,30.01,NNW,330,1.0,3.0,68,-99.99,,,-99.99,155.8,1-wire,2014-09-17 14:23:00,
2014-09-17 09:28:00,57.7,46.4,30.01,NNW,332,0.0,1.0,66,-99.99,,,-99.99,487.2,1-wire,2014-09-17 14:28:00,
2014-09-17 09:33:00,58.6,47.0,30.00,NNW,332,0.0,3.0,65,-99.99,,,-99.99,476.5,1-wire,2014-09-17 14:33:00,
2014-09-17 09:38:00,59.6,47.0,30.00,NNW,332,1.0,2.0,63,-99.99,,,-99.99,198.5,1-wire,2014-09-17 14:38:00,
2014-09-17 09:43:00,59.8,47.9,30.01,NNW,331,1.0,2.0,65,-99.99,,,-99.99,305.4,1-wire,2014-09-17 14:43:00,
2014-09-17 09:48:00,60.1,47.6,30.00,NNW,331,0.0,0.0,63,-99.99,,,-99.99,441.3,1-wire,2014-09-17 14:48:00,
2014-09-17 09:54:00,60.2,46.8,30.00,NNW,331,0.0,0.0,61,-99.99,,,-99.99,368.8,1-wire,2014-09-17 14:54:00,
2014-09-17 09:59:00,60.4,46.3,30.00,NNW,341,0.0,1.0,60,-99.99,,,-99.99,333.5,1-wire,2014-09-17 14:59:00,
2014-09-17 10:04:00,61.5,47.9,30.00,NNW,341,1.0,4.0,61,-99.99,,,-99.99,293.2,1-wire,2014-09-17 15:04:00,
2014-09-17 10:09:00,61.7,47.2,30.01,NNW,341,0.0,0.0,59,-99.99,,,-99.99,221.7,1-wire,2014-09-17 15:09:00,
2014-09-17 10:14:00,61.5,47.5,30.00,NNW,348,1.0,3.0,60,-99.99,,,-99.99,201.6,1-wire,2014-09-17 15:14:00,
2014-09-17 10:19:00,61.9,47.1,30.01,NNW,348,0.0,2.0,58,-99.99,,,-99.99,243.7,1-wire,2014-09-17 15:19:00,
2014-09-17 10:24:00,62.3,48.5,30.00,NNW,348,0.0,2.0,61,-99.99,,,-99.99,226.0,1-wire,2014-09-17 15:24:00,
2014-09-17 10:29:00,62.0,47.6,30.01,NNW,332,0.0,2.0,59,-99.99,,,-99.99,219.9,1-wire,2014-09-17 15:29:00,
2014-09-17 10:30:00,61.9,48.3,30.01,NNW,332,0.0,0.0,61,-99.99,,,-99.99,230.9,1-wire,2014-09-17 15:30:00,
2014-09-17 10:35:00,61.8,47.6,30.01,NNW,332,0.0,0.0,60,-99.99,,,-99.99,267.6,1-wire,2014-09-17 15:35:00,
2014-09-17 10:40:00,62.0,47.6,30.01,NNW,332,0.0,0.0,59,-99.99,,,-99.99,311.5,1-wire,2014-09-17 15:40:00,
2014-09-17 10:45:00,62.3,48.1,30.01,NNW,335,0.0,1.0,60,-99.99,,,-99.99,271.2,1-wire,2014-09-17 15:45:00,
2014-09-17 10:50:00,62.3,47.9,30.01,NNW,335,0.0,2.0,59,-99.99,,,-99.99,306.0,1-wire,2014-09-17 15:50:00,
2014-09-17 10:55:00,62.7,48.7,30.01,NNW,335,1.0,3.0,60,-99.99,,,-99.99,219.9,1-wire,2014-09-17 15:55:00,
2014-09-17 11:01:00,63.1,50.1,30.01,NNW,335,0.0,0.0,63,-99.99,,,-99.99,248.9,1-wire,2014-09-17 16:01:00,
2014-09-17 11:06:00,63.2,49.3,30.01,NNW,335,0.0,2.0,60,-99.99,,,-99.99,578.8,1-wire,2014-09-17 16:06:00,
2014-09-17 11:11:00,64.5,49.8,30.00,NNW,335,0.0,2.0,59,-99.99,,,-99.99,514.7,1-wire,2014-09-17 16:11:00,
2014-09-17 11:17:00,64.2,48.8,30.00,WSW,250,1.0,4.0,57,-99.99,,,-99.99,539.1,1-wire,2014-09-17 16:17:00,
2014-09-17 11:22:00,65.0,50.6,30.00,WSW,250,0.0,0.0,60,-99.99,,,-99.99,421.5,1-wire,2014-09-17 16:22:00,
2014-09-17 11:27:00,64.9,49.1,30.00,WSW,255,0.0,2.0,57,-99.99,,,-99.99,337.5,1-wire,2014-09-17 16:27:00,
2014-09-17 11:32:00,65.3,48.6,30.00,SW,232,1.0,3.0,55,-99.99,,,-99.99,319.2,1-wire,2014-09-17 16:32:00,
2014-09-17 11:37:00,64.9,48.7,30.00,SW,232,2.0,5.0,56,-99.99,,,-99.99,369.6,1-wire,2014-09-17 16:37:00,
2014-09-17 11:42:00,64.8,48.5,30.00,SW,231,0.0,2.0,56,-99.99,,,-99.99,549.8,1-wire,2014-09-17 16:42:00,
2014-09-17 11:48:00,65.6,49.3,29.99,SW,231,0.0,2.0,56,-99.99,,,-99.99,623.1,1-wire,2014-09-17 16:48:00,
2014-09-17 11:53:00,65.6,48.9,29.99,SW,231,0.0,2.0,55,-99.99,,,-99.99,432.5,1-wire,2014-09-17 16:53:00,
2014-09-17 11:58:00,66.3,48.9,29.99,WSW,237,1.0,4.0,53,-99.99,,,-99.99,559.0,1-wire,2014-09-17 16:58:00,
2014-09-17 12:03:00,66.5,49.7,29.99,WSW,237,0.0,0.0,55,-99.99,,,-99.99,577.3,1-wire,2014-09-17 17:03:00,
2014-09-17 12:08:00,67.0,48.9,29.99,WSW,237,0.0,2.0,52,-99.99,,,-99.99,579.6,1-wire,2014-09-17 17:08:00,
2014-09-17 12:13:00,67.1,49.0,29.99,WSW,252,1.0,4.0,52,-99.99,,,-99.99,582.8,1-wire,2014-09-17 17:13:00,
2014-09-17 12:18:00,67.4,49.6,29.99,WSW,252,0.0,2.0,53,-99.99,,,-99.99,586.5,1-wire,2014-09-17 17:18:00,
2014-09-17 12:23:00,67.6,48.2,29.99,WSW,252,0.0,0.0,50,-99.99,,,-99.99,623.1,1-wire,2014-09-17 17:23:00,
2014-09-17 12:29:00,67.1,48.3,29.99,WSW,247,1.0,4.0,51,-99.99,,,-99.99,578.8,1-wire,2014-09-17 17:29:00,
2014-09-17 12:34:00,67.0,47.6,29.99,WSW,247,1.0,3.0,50,-99.99,,,-99.99,620.1,1-wire,2014-09-17 17:34:00,
2014-09-17 12:39:00,68.5,51.8,29.99,WSW,247,1.0,2.0,55,-99.99,,,-99.99,604.8,1-wire,2014-09-17 17:39:00,
2014-09-17 12:44:00,68.6,48.8,29.99,WSW,245,0.0,0.0,49,-99.99,,,-99.99,595.6,1-wire,2014-09-17 17:44:00,
2014-09-17 12:49:00,68.2,49.9,29.99,WSW,245,1.0,6.0,52,-99.99,,,-99.99,623.1,1-wire,2014-09-17 17:49:00,
2014-09-17 12:54:00,67.5,47.3,29.99,WSW,245,1.0,5.0,48,-99.99,,,-99.99,601.7,1-wire,2014-09-17 17:54:00,
2014-09-17 12:59:00,68.1,50.1,29.99,WSW,249,0.0,1.0,53,-99.99,,,-99.99,607.8,1-wire,2014-09-17 17:59:00,
2014-09-17 13:04:00,68.7,50.5,29.99,WSW,249,1.0,4.0,52,-99.99,,,-99.99,604.8,1-wire,2014-09-17 18:04:00,
2014-09-17 13:09:00,68.4,49.5,29.99,WSW,249,1.0,3.0,51,-99.99,,,-99.99,603.3,1-wire,2014-09-17 18:09:00,
2014-09-17 13:14:00,68.6,50.0,29.99,West,261,0.0,1.0,52,-99.99,,,-99.99,608.5,1-wire,2014-09-17 18:14:00,
2014-09-17 13:19:00,69.1,50.1,29.99,West,261,0.0,2.0,51,-99.99,,,-99.99,614.0,1-wire,2014-09-17 18:19:00,
2014-09-17 13:25:00,68.5,49.3,29.99,West,261,0.0,3.0,50,-99.99,,,-99.99,617.0,1-wire,2014-09-17 18:25:00,
2014-09-17 13:30:00,68.9,49.6,29.99,WSW,248,0.0,2.0,50,-99.99,,,-99.99,623.1,1-wire,2014-09-17 18:30:00,
2014-09-17 13:35:00,68.9,50.3,29.99,WSW,248,0.0,2.0,52,-99.99,,,-99.99,232.7,1-wire,2014-09-17 18:35:00,
2014-09-17 13:40:00,69.3,48.6,29.99,WSW,248,0.0,0.0,48,-99.99,,,-99.99,155.7,1-wire,2014-09-17 18:40:00,
2014-09-17 13:46:00,69.1,50.5,29.98,West,259,2.0,5.0,52,-99.99,,,-99.99,131.9,1-wire,2014-09-17 18:46:00,
2014-09-17 13:51:00,68.9,49.2,29.98,West,259,1.0,5.0,50,-99.99,,,-99.99,109.9,1-wire,2014-09-17 18:51:00,
2014-09-17 13:56:00,69.3,50.8,29.98,West,259,0.0,2.0,52,-99.99,,,-99.99,109.9,1-wire,2014-09-17 18:56:00,
2014-09-17 14:01:00,69.4,50.9,29.98,WSW,256,1.0,3.0,52,-99.99,,,-99.99,119.1,1-wire,2014-09-17 19:01:00,
2014-09-17 14:06:00,68.3,48.1,29.97,WSW,256,0.0,0.0,49,-99.99,,,-99.99,137.4,1-wire,2014-09-17 19:06:00,
2014-09-17 14:11:00,68.4,50.8,29.97,WSW,256,0.0,2.0,53,-99.99,,,-99.99,153.9,1-wire,2014-09-17 19:11:00,
2014-09-17 14:16:00,68.4,50.5,29.97,WSW,248,0.0,0.0,53,-99.99,,,-99.99,133.8,1-wire,2014-09-17 19:16:00,
2014-09-17 14:21:00,68.0,49.5,29.97,WSW,248,1.0,3.0,52,-99.99,,,-99.99,137.4,1-wire,2014-09-17 19:21:00,
2014-09-17 14:26:00,67.8,49.8,29.97,WSW,248,0.0,0.0,52,-99.99,,,-99.99,141.1,1-wire,2014-09-17 19:26:00,
2014-09-17 14:31:00,67.5,49.2,29.97,WSW,247,1.0,4.0,52,-99.99,,,-99.99,502.2,1-wire,2014-09-17 19:31:00,
2014-09-17 14:36:00,67.5,49.4,29.97,WSW,247,0.0,2.0,52,-99.99,,,-99.99,113.6,1-wire,2014-09-17 19:36:00,
2014-09-17 14:41:00,67.8,49.4,29.97,WSW,247,0.0,2.0,52,-99.99,,,-99.99,124.6,1-wire,2014-09-17 19:41:00,
2014-09-17 14:46:00,67.5,47.7,29.97,West,261,1.0,3.0,49,-99.99,,,-99.99,95.3,1-wire,2014-09-17 19:46:00,
2014-09-17 14:51:00,67.7,49.7,29.97,West,261,0.0,2.0,53,-99.99,,,-99.99,91.6,1-wire,2014-09-17 19:51:00,
2014-09-17 14:56:00,67.7,49.9,29.97,West,261,1.0,4.0,53,-99.99,,,-99.99,93.4,1-wire,2014-09-17 19:56:00,
2014-09-17 15:01:00,67.6,49.5,29.96,WSW,247,0.0,2.0,52,-99.99,,,-99.99,124.6,1-wire,2014-09-17 20:01:00,
2014-09-17 15:06:00,67.6,50.5,29.96,WSW,247,1.0,4.0,54,-99.99,,,-99.99,199.7,1-wire,2014-09-17 20:06:00,
2014-09-17 15:11:00,68.0,51.2,29.96,WSW,247,0.0,1.0,55,-99.99,,,-99.99,106.3,1-wire,2014-09-17 20:11:00,
2014-09-17 15:16:00,68.2,50.8,29.96,WSW,250,0.0,0.0,54,-99.99,,,-99.99,93.4,1-wire,2014-09-17 20:16:00,
2014-09-17 15:21:00,67.9,49.9,29.96,WSW,250,4.0,7.0,53,-99.99,,,-99.99,89.8,1-wire,2014-09-17 20:21:00,
2014-09-17 15:26:00,68.1,50.7,29.96,WSW,250,0.0,2.0,54,-99.99,,,-99.99,78.8,1-wire,2014-09-17 20:26:00,
2014-09-17 15:32:00,67.9,50.5,29.96,SW,215,1.0,2.0,54,-99.99,,,-99.99,82.4,1-wire,2014-09-17 20:32:00,
2014-09-17 15:38:00,67.8,49.2,29.96,SW,215,1.0,3.0,51,-99.99,,,-99.99,97.7,1-wire,2014-09-17 20:38:00,
2014-09-17 15:43:00,68.1,50.5,29.96,WSW,249,0.0,0.0,53,-99.99,,,-99.99,73.3,1-wire,2014-09-17 20:43:00,
2014-09-17 15:48:00,68.3,50.4,29.96,WSW,249,0.0,0.0,53,-99.99,,,-99.99,82.4,1-wire,2014-09-17 20:48:00,
2014-09-17 15:53:00,68.1,50.0,29.96,WSW,249,0.0,2.0,52,-99.99,,,-99.99,76.9,1-wire,2014-09-17 20:53:00,
2014-09-17 15:56:00,68.0,49.9,29.96,WSW,249,0.0,2.0,52,-99.99,,,-99.99,73.3,1-wire,2014-09-17 20:56:00,
2014-09-17 16:01:00,67.7,49.1,29.96,WSW,240,0.0,0.0,51,-99.99,,,-99.99,73.3,1-wire,2014-09-17 21:01:00,
2014-09-17 16:06:00,68.1,50.0,29.96,WSW,240,0.0,1.0,52,-99.99,,,-99.99,73.3,1-wire,2014-09-17 21:06:00,
2014-09-17 16:11:00,67.8,48.5,29.96,WSW,240,0.0,0.0,50,-99.99,,,-99.99,100.8,1-wire,2014-09-17 21:11:00,
2014-09-17 16:16:00,68.0,50.9,29.96,West,260,1.0,3.0,54,-99.99,,,-99.99,82.4,1-wire,2014-09-17 21:16:00,
2014-09-17 16:21:00,68.3,50.7,29.96,West,260,0.0,0.0,53,-99.99,,,-99.99,78.8,1-wire,2014-09-17 21:21:00,
2014-09-17 16:26:00,68.3,50.4,29.96,West,260,0.0,1.0,53,-99.99,,,-99.99,82.4,1-wire,2014-09-17 21:26:00,
2014-09-17 16:31:00,68.0,49.7,29.96,West,261,0.0,0.0,52,-99.99,,,-99.99,93.4,1-wire,2014-09-17 21:31:00,
2014-09-17 16:36:00,68.5,50.4,29.96,West,261,0.0,0.0,52,-99.99,,,-99.99,247.4,1-wire,2014-09-17 21:36:00,
2014-09-17 16:41:00,68.5,51.7,29.96,West,261,0.0,0.0,55,-99.99,,,-99.99,504.0,1-wire,2014-09-17 21:41:00,
2014-09-17 16:46:00,68.2,50.9,29.96,WSW,246,0.0,0.0,54,-99.99,,,-99.99,498.5,1-wire,2014-09-17 21:46:00,
2014-09-17 16:51:00,67.8,50.0,29.96,WSW,246,0.0,1.0,53,-99.99,,,-99.99,494.8,1-wire,2014-09-17 21:51:00,
2014-09-17 16:56:00,67.7,50.4,29.96,WSW,246,0.0,2.0,54,-99.99,,,-99.99,485.7,1-wire,2014-09-17 21:56:00,
2014-09-17 17:01:00,68.3,51.1,29.96,WSW,249,0.0,0.0,54,-99.99,,,-99.99,476.5,1-wire,2014-09-17 22:01:00,
2014-09-17 17:06:00,68.6,52.1,29.96,WSW,249,0.0,0.0,56,-99.99,,,-99.99,460.0,1-wire,2014-09-17 22:06:00,
2014-09-17 17:11:00,68.7,53.2,29.96,WSW,249,0.0,0.0,58,-99.99,,,-99.99,458.2,1-wire,2014-09-17 22:11:00,
2014-09-17 17:16:00,68.3,53.7,29.96,SW,234,0.0,2.0,60,-99.99,,,-99.99,442.9,1-wire,2014-09-17 22:16:00,
2014-09-17 17:21:00,67.8,51.1,29.96,SW,234,0.0,0.0,55,-99.99,,,-99.99,436.8,1-wire,2014-09-17 22:21:00,
2014-09-17 17:26:00,68.5,53.1,29.96,SW,234,0.0,0.0,58,-99.99,,,-99.99,247.4,1-wire,2014-09-17 22:26:00,
2014-09-17 17:31:00,68.1,52.1,29.96,SW,236,0.0,2.0,57,-99.99,,,-99.99,73.3,1-wire,2014-09-17 22:31:00,
2014-09-17 17:36:00,67.7,50.9,29.96,SW,236,0.0,2.0,55,-99.99,,,-99.99,73.3,1-wire,2014-09-17 22:36:00,
2014-09-17 17:41:00,67.5,51.0,29.96,SW,236,0.0,2.0,55,-99.99,,,-99.99,70.2,1-wire,2014-09-17 22:41:00,
2014-09-17 17:47:00,67.4,52.5,29.96,West,281,0.0,0.0,59,-99.99,,,-99.99,48.8,1-wire,2014-09-17 22:47:00,
2014-09-17 17:52:00,67.2,52.8,29.96,West,281,0.0,0.0,60,-99.99,,,-99.99,48.8,1-wire,2014-09-17 22:52:00,
2014-09-17 17:57:00,67.0,53.5,29.96,West,280,0.0,0.0,62,-99.99,,,-99.99,61.0,1-wire,2014-09-17 22:57:00,
2014-09-17 18:02:00,66.5,53.5,29.97,West,280,0.0,0.0,63,-99.99,,,-99.99,70.2,1-wire,2014-09-17 23:02:00,
2014-09-17 18:03:00,66.4,53.5,29.96,West,280,0.0,0.0,63,-99.99,,,-99.99,69.6,1-wire,2014-09-17 23:03:00,
2014-09-17 18:09:00,66.2,53.4,29.97,West,280,0.0,0.0,63,-99.99,,,-99.99,36.6,1-wire,2014-09-17 23:09:00,
2014-09-17 18:14:00,66.1,53.9,29.96,NW,326,0.0,0.0,65,-99.99,,,-99.99,29.2,1-wire,2014-09-17 23:14:00,
2014-09-17 18:19:00,65.5,53.5,29.96,NW,326,0.0,0.0,65,-99.99,,,-99.99,27.4,1-wire,2014-09-17 23:19:00,
2014-09-17 18:24:00,65.1,53.1,29.97,NW,326,0.0,0.0,65,-99.99,,,-99.99,29.2,1-wire,2014-09-17 23:24:00,
2014-09-17 18:29:00,64.9,53.7,29.97,WNW,303,0.0,0.0,67,-99.99,,,-99.99,36.6,1-wire,2014-09-17 23:29:00,
2014-09-17 18:34:00,64.9,54.0,29.97,WNW,303,0.0,0.0,68,-99.99,,,-99.99,36.6,1-wire,2014-09-17 23:34:00,
2014-09-17 18:39:00,64.5,53.9,29.97,WNW,303,0.0,0.0,69,-99.99,,,-99.99,29.2,1-wire,2014-09-17 23:39:00,
2014-09-17 18:44:00,64.1,53.9,29.97,NW,304,0.0,0.0,70,-99.99,,,-99.99,23.8,1-wire,2014-09-17 23:44:00,
2014-09-17 18:49:00,64.2,54.1,29.97,NW,304,0.0,0.0,70,-99.99,,,-99.99,18.3,1-wire,2014-09-17 23:49:00,
2014-09-17 18:55:00,63.8,54.3,29.97,NW,304,0.0,0.0,71,-99.99,,,-99.99,15.2,1-wire,2014-09-17 23:55:00,
2014-09-17 19:00:00,63.7,54.2,29.97,NW,317,0.0,0.0,71,-99.99,,,-99.99,9.1,1-wire,2014-09-18 00:00:00,
2014-09-17 19:05:00,63.2,54.0,29.97,NW,317,0.0,0.0,72,-99.99,,,-99.99,4.6,1-wire,2014-09-18 00:05:00,
2014-09-17 19:10:00,62.8,53.8,29.97,NW,317,0.0,0.0,72,-99.99,,,-99.99,0.0,1-wire,2014-09-18 00:10:00,
2014-09-17 19:15:00,62.9,54.2,29.97,NNW,340,0.0,0.0,73,-99.99,,,-99.99,1.5,1-wire,2014-09-18 00:15:00,
2014-09-17 19:20:00,62.6,54.0,29.97,NNW,340,0.0,0.0,73,-99.99,,,-99.99,0.0,1-wire,2014-09-18 00:20:00,
2014-09-17 19:25:00,62.2,53.6,29.97,NNW,340,0.0,0.0,74,-99.99,,,-99.99,0.0,1-wire,2014-09-18 00:25:00,
2014-09-17 19:31:00,62.3,54.0,29.97,NNW,346,0.0,0.0,74,-99.99,,,-99.99,1.5,1-wire,2014-09-18 00:31:00,
2014-09-17 19:36:00,62.0,54.0,29.97,NNW,346,0.0,0.0,75,-99.99,,,-99.99,0.0,1-wire,2014-09-18 00:36:00,
2014-09-17 19:41:00,61.9,54.0,29.97,NNW,346,0.0,0.0,75,-99.99,,,-99.99,0.0,1-wire,2014-09-18 00:41:00,
2014-09-17 19:46:00,61.6,53.8,29.97,North,354,0.0,0.0,76,-99.99,,,-99.99,0.0,1-wire,2014-09-18 00:46:00,
2014-09-17 19:51:00,61.1,53.2,29.98,North,354,0.0,0.0,75,-99.99,,,-99.99,1.5,1-wire,2014-09-18 00:51:00,
2014-09-17 19:56:00,61.3,53.8,29.98,North,354,0.0,0.0,76,-99.99,,,-99.99,0.0,1-wire,2014-09-18 00:56:00,
2014-09-17 20:01:00,61.4,53.9,29.98,North,351,0.0,0.0,76,-99.99,,,-99.99,0.0,1-wire,2014-09-18 01:01:00,